createdAt,value
2023-05-10T00:01:43.123Z,74.67
2023-05-10T00:04:15.730Z,74.75
2023-05-10T00:06:56.384Z,75.43
2023-05-10T00:09:34.830Z,76.80
2023-05-10T00:12:15.899Z,77.98
2023-05-10T00:14:53.340Z,77.30
2023-05-10T00:17:36.819Z,77.86
2023-05-10T00:20:17.416Z,78.44
2023-05-10T00:23:06.850Z,78.42
2023-05-10T00:25:49.720Z,78.41
2023-05-10T00:28:38.364Z,79.24
2023-05-10T00:31:19.030Z,79.03
2023-05-10T00:34:00.200Z,79.88
2023-05-10T00:36:37.946Z,80.12
2023-05-10T00:39:28.467Z,80.30
2023-05-10T00:42:12.223Z,80.44
2023-05-10T00:44:58.624Z,80.38
2023-05-10T00:47:32.059Z,80.99
2023-05-10T00:50:25.012Z,82.36
2023-05-10T00:53:05.057Z,82.60
2023-05-10T00:55:43.298Z,83.18
2023-05-10T00:58:18.697Z,84.05
2023-05-10T01:01:05.200Z,83.37
2023-05-10T01:03:49.263Z,83.40
2023-05-10T01:06:35.870Z,83.68
2023-05-10T01:09:19.077Z,85.31
2023-05-10T01:11:50.224Z,86.21
2023-05-10T01:14:37.328Z,87.62
2023-05-10T01:17:22.197Z,88.20
2023-05-10T01:20:03.085Z,88.08
2023-05-10T01:23:00.841Z,87.10
2023-05-10T01:25:45.226Z,86.59
2023-05-10T01:28:49.864Z,87.73
2023-05-10T01:31:36.954Z,88.15
2023-05-10T01:34:14.069Z,88.79
2023-05-10T01:36:56.577Z,88.19
2023-05-10T01:39:49.968Z,87.52
2023-05-10T01:42:39.918Z,87.28
2023-05-10T01:45:19.347Z,87.14
2023-05-10T01:48:33.007Z,87.23
2023-05-10T01:51:11.039Z,88.38
2023-05-10T01:54:00.040Z,88.03
2023-05-10T01:56:46.051Z,88.71
2023-05-10T01:59:26.867Z,89.46
2023-05-10T02:02:08.033Z,90.31
2023-05-10T02:04:51.765Z,90.42
2023-05-10T02:07:40.046Z,91.56
2023-05-10T02:10:20.698Z,93.25
2023-05-10T02:13:05.287Z,93.41
2023-05-10T02:15:39.804Z,90.49
2023-05-10T02:18:19.623Z,90.19
2023-05-10T02:21:01.807Z,90.27
2023-05-10T02:23:40.673Z,88.18
2023-05-10T02:26:25.604Z,88.09
2023-05-10T02:29:04.977Z,88.60
2023-05-10T02:31:39.868Z,89.93
2023-05-10T02:34:22.996Z,88.83
2023-05-10T02:36:57.241Z,90.60
2023-05-10T02:39:42.730Z,91.00
2023-05-10T02:42:38.692Z,91.77
2023-05-10T02:45:29.788Z,91.95
2023-05-10T02:48:06.048Z,92.57
2023-05-10T02:50:55.142Z,92.91
2023-05-10T02:53:45.284Z,93.51
2023-05-10T02:56:40.723Z,93.79
2023-05-10T02:59:22.198Z,94.23
2023-05-10T03:02:02.790Z,95.32
2023-05-10T03:04:46.292Z,96.03
2023-05-10T03:07:27.003Z,95.20
2023-05-10T03:10:17.433Z,96.27
2023-05-10T03:13:20.942Z,98.04
2023-05-10T03:16:36.856Z,100.00
2023-05-10T03:19:24.695Z,100.00
2023-05-10T03:22:16.618Z,100.00
2023-05-10T03:24:55.954Z,100.00
2023-05-10T03:27:48.683Z,100.00
2023-05-10T03:30:26.658Z,100.00
2023-05-10T03:33:08.041Z,100.00
2023-05-10T03:35:52.685Z,100.00
2023-05-10T03:38:30.519Z,100.00
2023-05-10T03:41:13.776Z,100.00
2023-05-10T03:43:52.886Z,100.00
2023-05-10T03:46:30.962Z,100.00
2023-05-10T03:49:13.451Z,100.00
2023-05-10T03:51:59.169Z,100.00
2023-05-10T03:54:37.442Z,100.00
2023-05-10T03:57:21.101Z,100.00
2023-05-10T04:00:05.915Z,100.00
2023-05-10T04:02:55.146Z,100.00
2023-05-10T04:05:39.346Z,100.00
2023-05-10T04:08:26.037Z,100.00
2023-05-10T04:11:17.972Z,100.00
2023-05-10T04:13:55.456Z,100.00
2023-05-10T04:16:39.218Z,100.00
2023-05-10T04:19:21.465Z,100.00
2023-05-10T04:22:02.887Z,100.00
2023-05-10T04:24:48.222Z,100.00
2023-05-10T04:27:31.461Z,100.00
2023-05-10T04:30:12.283Z,100.00
2023-05-10T04:32:55.560Z,100.00
2023-05-10T04:35:47.267Z,100.00
2023-05-10T04:38:36.078Z,100.00
2023-05-10T04:41:17.051Z,100.00
2023-05-10T04:43:53.214Z,100.00
2023-05-10T04:46:43.626Z,100.00
2023-05-10T04:49:30.563Z,100.00
2023-05-10T04:52:32.100Z,100.00
2023-05-10T04:55:35.474Z,100.00
2023-05-10T04:58:28.130Z,100.00
2023-05-10T05:01:11.615Z,100.00
2023-05-10T05:03:58.432Z,100.00
2023-05-10T05:06:48.283Z,100.00
2023-05-10T05:09:47.061Z,100.00
2023-05-10T05:12:25.236Z,100.00
2023-05-10T05:15:11.527Z,100.00
2023-05-10T05:17:50.099Z,100.00
2023-05-10T05:20:23.451Z,100.00
2023-05-10T05:23:08.063Z,100.00
2023-05-10T05:25:51.862Z,100.00
2023-05-10T05:28:32.417Z,100.00
2023-05-10T05:31:19.150Z,100.00
2023-05-10T05:33:53.855Z,100.00
2023-05-10T05:36:39.726Z,100.00
2023-05-10T05:39:23.307Z,100.00
2023-05-10T05:42:04.909Z,100.00
2023-05-10T05:44:50.796Z,99.21
2023-05-10T05:47:31.242Z,97.56
2023-05-10T05:50:23.724Z,97.13
2023-05-10T05:53:10.596Z,96.74
2023-05-10T05:56:09.179Z,94.16
2023-05-10T05:58:49.770Z,92.87
2023-05-10T06:01:29.966Z,90.93
2023-05-10T06:04:14.873Z,86.51
2023-05-10T06:06:59.298Z,83.52
2023-05-10T06:09:34.459Z,82.65
2023-05-10T06:12:20.838Z,78.61
2023-05-10T06:15:04.398Z,75.13
2023-05-10T06:17:47.718Z,71.81
2023-05-10T06:20:36.727Z,70.92
2023-05-10T06:23:26.204Z,67.45
2023-05-10T06:26:15.832Z,70.81
2023-05-10T06:28:50.422Z,75.67
2023-05-10T06:31:39.683Z,73.31
2023-05-10T06:34:21.892Z,67.68
2023-05-10T06:37:07.538Z,66.77
2023-05-10T06:39:48.848Z,64.97
2023-05-10T06:42:37.756Z,63.18
2023-05-10T06:45:19.172Z,62.29
2023-05-10T06:48:07.828Z,58.10
2023-05-10T06:51:04.169Z,60.38
2023-05-10T06:53:49.935Z,56.60
2023-05-10T06:56:38.634Z,58.76
2023-05-10T06:59:33.450Z,58.89
2023-05-10T07:02:12.005Z,55.66
2023-05-10T07:04:52.914Z,57.43
2023-05-10T07:07:31.456Z,58.32
2023-05-10T07:10:12.245Z,52.81
2023-05-10T07:12:53.737Z,53.04
2023-05-10T07:15:32.840Z,55.89
2023-05-10T07:18:08.926Z,54.61
2023-05-10T07:20:53.803Z,54.68
2023-05-10T07:23:44.937Z,58.12
2023-05-10T07:26:28.924Z,54.46
2023-05-10T07:29:16.969Z,57.11
2023-05-10T07:32:03.104Z,52.58
2023-05-10T07:34:47.906Z,54.73
2023-05-10T07:37:37.832Z,52.96
2023-05-10T07:40:24.801Z,54.54
2023-05-10T07:43:09.919Z,59.63
2023-05-10T07:45:50.113Z,57.76
2023-05-10T07:48:30.871Z,56.97
2023-05-10T07:51:17.595Z,55.59
2023-05-10T07:54:09.714Z,58.35
2023-05-10T07:56:58.966Z,58.35
2023-05-10T07:59:48.928Z,54.21
2023-05-10T08:02:32.185Z,51.82
2023-05-10T08:05:23.658Z,52.00
2023-05-10T08:08:04.512Z,53.79
2023-05-10T08:10:47.716Z,54.51
2023-05-10T08:13:36.044Z,58.08
2023-05-10T08:16:20.788Z,57.09
2023-05-10T08:19:08.074Z,57.21
2023-05-10T08:21:51.883Z,56.63
2023-05-10T08:24:40.563Z,59.64
2023-05-10T08:27:24.843Z,61.40
2023-05-10T08:30:05.862Z,61.23
2023-05-10T08:32:52.554Z,62.38
2023-05-10T08:35:42.420Z,60.03
2023-05-10T08:38:20.724Z,63.18
2023-05-10T08:41:00.685Z,59.95
2023-05-10T08:43:47.208Z,60.01
2023-05-10T08:46:39.786Z,60.87
2023-05-10T08:49:21.957Z,58.56
2023-05-10T08:52:10.198Z,61.25
2023-05-10T08:54:48.471Z,59.21
2023-05-10T08:57:33.319Z,59.58
2023-05-10T09:00:25.880Z,60.11
2023-05-10T09:03:14.181Z,63.12
2023-05-10T09:06:06.907Z,61.93
2023-05-10T09:09:00.920Z,61.41
2023-05-10T09:11:42.206Z,61.26
2023-05-10T09:14:43.735Z,60.38
2023-05-10T09:17:37.702Z,58.18
2023-05-10T09:20:15.883Z,57.03
2023-05-10T09:23:13.209Z,57.08
2023-05-10T09:26:20.310Z,56.96
2023-05-10T09:29:29.495Z,59.21
2023-05-10T09:32:13.890Z,59.51
2023-05-10T09:35:10.266Z,56.44
2023-05-10T09:38:01.915Z,58.71
2023-05-10T09:40:40.885Z,57.62
2023-05-10T09:43:38.382Z,57.56
2023-05-10T09:46:27.836Z,58.64
2023-05-10T09:49:09.455Z,57.64
2023-05-10T09:52:11.673Z,57.70
2023-05-10T09:55:09.856Z,54.28
2023-05-10T09:58:18.353Z,52.97
2023-05-10T10:00:57.955Z,55.33
2023-05-10T10:03:42.627Z,54.01
2023-05-10T10:06:32.784Z,55.26
2023-05-10T10:09:22.222Z,56.32
2023-05-10T10:12:10.112Z,53.13
2023-05-10T10:15:03.118Z,53.37
2023-05-10T10:17:45.382Z,54.94
2023-05-10T10:20:24.443Z,53.18
2023-05-10T10:23:02.742Z,50.17
2023-05-10T10:25:45.514Z,50.67
2023-05-10T10:28:57.888Z,51.93
2023-05-10T10:31:53.501Z,53.36
2023-05-10T10:34:35.140Z,52.33
2023-05-10T10:37:16.217Z,53.35
2023-05-10T10:39:55.287Z,51.53
2023-05-10T10:42:40.717Z,48.72
2023-05-10T10:45:24.747Z,48.32
2023-05-10T10:48:35.319Z,48.62
2023-05-10T10:51:15.848Z,51.39
2023-05-10T10:53:59.398Z,50.52
2023-05-10T10:56:42.850Z,50.63
2023-05-10T10:59:37.677Z,50.65
2023-05-10T11:02:35.904Z,50.53
2023-05-10T11:05:25.932Z,51.20
2023-05-10T11:08:18.913Z,50.98
2023-05-10T11:11:04.617Z,52.00
2023-05-10T11:13:54.844Z,50.17
2023-05-10T11:16:41.599Z,49.60
2023-05-10T11:19:33.412Z,48.07
2023-05-10T11:22:19.064Z,49.22
2023-05-10T11:25:09.464Z,49.70
2023-05-10T11:27:52.043Z,49.61
2023-05-10T11:30:25.015Z,50.12
2023-05-10T11:33:03.186Z,47.32
2023-05-10T11:35:46.916Z,48.86
2023-05-10T11:38:32.318Z,50.00
2023-05-10T11:41:14.167Z,46.83
2023-05-10T11:43:53.844Z,50.76
2023-05-10T11:46:38.439Z,44.19
2023-05-10T11:49:19.501Z,45.49
2023-05-10T11:51:57.831Z,43.53
2023-05-10T11:54:55.916Z,46.25
2023-05-10T11:57:32.881Z,44.54
2023-05-10T12:00:20.130Z,47.01
2023-05-10T12:03:01.344Z,46.38
2023-05-10T12:05:49.247Z,45.74
2023-05-10T12:08:30.457Z,46.08
2023-05-10T12:11:25.739Z,47.54
2023-05-10T12:14:04.885Z,47.91
2023-05-10T12:16:45.603Z,46.82
2023-05-10T12:19:25.875Z,45.41
2023-05-10T12:22:08.125Z,47.57
2023-05-10T12:24:48.843Z,43.29
2023-05-10T12:27:43.516Z,44.81
2023-05-10T12:30:23.908Z,45.36
2023-05-10T12:33:10.505Z,45.31
2023-05-10T12:35:57.656Z,45.27
2023-05-10T12:38:34.318Z,45.49
2023-05-10T12:41:10.612Z,46.37
2023-05-10T12:43:51.301Z,47.88
2023-05-10T12:46:34.620Z,46.76
2023-05-10T12:49:20.045Z,47.80
2023-05-10T12:51:55.591Z,47.19
2023-05-10T12:54:34.013Z,45.92
2023-05-10T12:57:12.258Z,46.01
2023-05-10T12:59:50.967Z,45.05
2023-05-10T13:02:36.538Z,45.62
2023-05-10T13:05:17.270Z,45.16
2023-05-10T13:07:51.794Z,45.54
2023-05-10T13:10:48.294Z,46.05
2023-05-10T13:13:19.383Z,45.58
2023-05-10T13:16:12.266Z,45.04
2023-05-10T13:19:00.441Z,46.35
2023-05-10T13:21:58.056Z,45.03
2023-05-10T13:24:50.980Z,44.27
2023-05-10T13:27:26.872Z,44.33
2023-05-10T13:30:08.718Z,44.80
2023-05-10T13:32:48.196Z,45.33
2023-05-10T13:35:29.484Z,46.02
2023-05-10T13:38:15.658Z,45.62
2023-05-10T13:40:49.249Z,47.07
2023-05-10T13:43:32.772Z,45.14
2023-05-10T13:46:19.886Z,43.99
2023-05-10T13:49:02.270Z,44.43
2023-05-10T13:52:01.417Z,42.94
2023-05-10T13:54:39.069Z,43.33
2023-05-10T13:57:15.014Z,43.42
2023-05-10T13:59:58.856Z,42.00
2023-05-10T14:02:45.919Z,40.51
2023-05-10T14:05:33.993Z,41.86
2023-05-10T14:08:15.820Z,40.05
2023-05-10T14:10:53.309Z,40.78
2023-05-10T14:13:30.849Z,41.52
2023-05-10T14:16:14.282Z,41.29
2023-05-10T14:19:09.778Z,40.89
2023-05-10T14:21:57.756Z,38.42
2023-05-10T14:24:46.455Z,39.55
2023-05-10T14:27:31.967Z,40.58
2023-05-10T14:30:16.154Z,41.59
2023-05-10T14:33:04.273Z,41.27
2023-05-10T14:35:56.351Z,42.32
2023-05-10T14:38:42.901Z,43.12
2023-05-10T14:41:28.699Z,44.06
2023-05-10T14:44:31.956Z,43.83
2023-05-10T14:47:16.868Z,47.35
2023-05-10T14:49:53.583Z,44.95
2023-05-10T14:52:43.543Z,44.05
2023-05-10T14:55:33.897Z,45.71
2023-05-10T14:58:17.803Z,45.58
2023-05-10T15:01:12.188Z,44.56
2023-05-10T15:03:47.788Z,45.22
2023-05-10T15:06:38.067Z,47.52
2023-05-10T15:09:13.614Z,46.77
2023-05-10T15:12:09.199Z,45.41
2023-05-10T15:14:46.977Z,43.19
2023-05-10T15:17:33.445Z,40.92
2023-05-10T15:20:18.532Z,40.37
2023-05-10T15:22:53.275Z,42.62
2023-05-10T15:25:29.986Z,42.99
2023-05-10T15:28:19.462Z,42.25
2023-05-10T15:31:05.679Z,43.83
2023-05-10T15:33:51.612Z,44.75
2023-05-10T15:36:38.895Z,46.47
2023-05-10T15:39:20.074Z,46.74
2023-05-10T15:42:06.581Z,46.45
2023-05-10T15:44:51.299Z,45.08
2023-05-10T15:47:43.273Z,44.27
2023-05-10T15:50:25.216Z,44.66
2023-05-10T15:53:22.170Z,47.51
2023-05-10T15:56:10.671Z,48.84
2023-05-10T15:58:54.750Z,47.82
2023-05-10T16:01:48.212Z,48.35
2023-05-10T16:04:49.432Z,48.66
2023-05-10T16:07:54.333Z,49.47
2023-05-10T16:10:38.875Z,48.80
2023-05-10T16:13:20.882Z,49.38
2023-05-10T16:16:13.484Z,50.41
2023-05-10T16:22:17.896Z,50.13
2023-05-10T16:24:57.998Z,49.59
2023-05-10T16:27:43.501Z,49.38
2023-05-10T16:30:30.227Z,48.54
2023-05-10T16:33:28.051Z,48.04
2023-05-10T16:36:29.183Z,47.47
2023-05-10T16:39:09.891Z,48.09
2023-05-10T16:41:54.220Z,46.36
2023-05-10T16:44:40.847Z,47.08
2023-05-10T16:47:26.915Z,47.73
2023-05-10T16:50:04.226Z,47.84
2023-05-10T16:53:06.547Z,47.34
2023-05-10T16:55:49.547Z,47.36
2023-05-10T16:58:36.865Z,45.32
2023-05-10T17:01:26.512Z,46.40
2023-05-10T17:04:09.342Z,45.50
2023-05-10T17:06:59.089Z,45.72
2023-05-10T17:09:40.324Z,46.43
2023-05-10T17:12:25.951Z,45.66
2023-05-10T17:15:01.355Z,46.46
2023-05-10T17:17:53.343Z,47.85
2023-05-10T17:21:03.019Z,47.70
2023-05-10T17:23:43.846Z,47.91
2023-05-10T17:26:27.606Z,47.91
2023-05-10T17:29:11.230Z,47.74
2023-05-10T17:32:07.598Z,48.38
2023-05-10T17:34:49.245Z,49.02
2023-05-10T17:37:39.547Z,49.39
2023-05-10T17:40:14.891Z,50.14
2023-05-10T17:42:53.200Z,49.86
2023-05-10T17:45:54.229Z,50.86
2023-05-10T17:48:35.574Z,50.75
2023-05-10T17:51:25.092Z,50.55
2023-05-10T17:54:08.888Z,51.24
2023-05-10T17:56:53.663Z,51.46
2023-05-10T17:59:35.845Z,50.84
2023-05-10T18:02:19.649Z,51.82
2023-05-10T18:05:11.714Z,52.18
2023-05-10T18:07:47.871Z,52.29
2023-05-10T18:10:30.204Z,52.93
2023-05-10T18:13:08.806Z,57.56
2023-05-10T18:15:52.427Z,53.92
2023-05-10T18:18:49.191Z,53.83
2023-05-10T18:21:46.226Z,54.60
2023-05-10T18:24:38.218Z,55.35
2023-05-10T18:27:32.227Z,54.98
2023-05-10T18:30:18.604Z,55.61
2023-05-10T18:32:54.216Z,55.64
2023-05-10T18:35:29.158Z,55.26
2023-05-10T18:38:08.740Z,57.08
2023-05-10T18:40:53.867Z,59.51
2023-05-10T18:43:37.207Z,56.09
2023-05-10T18:46:16.442Z,58.16
2023-05-10T18:49:11.165Z,55.63
2023-05-10T18:51:49.221Z,57.72
2023-05-10T18:54:36.084Z,56.51
2023-05-10T18:57:23.042Z,54.59
2023-05-10T19:00:39.456Z,51.67
2023-05-10T19:03:42.609Z,52.63
2023-05-10T19:06:28.576Z,53.00
2023-05-10T19:09:20.273Z,54.22
2023-05-10T19:12:08.259Z,55.37
2023-05-10T19:14:50.352Z,53.45
2023-05-10T19:17:36.862Z,53.54
2023-05-10T19:20:30.824Z,54.97
2023-05-10T19:23:26.962Z,53.01
2023-05-10T19:26:16.096Z,53.02
2023-05-10T19:28:52.643Z,53.73
2023-05-10T19:31:36.542Z,53.82
2023-05-10T19:34:32.091Z,54.34
2023-05-10T19:37:18.134Z,54.08
2023-05-10T19:40:23.215Z,54.05
2023-05-10T19:43:04.991Z,53.32
2023-05-10T19:45:47.453Z,54.35
2023-05-10T19:48:40.602Z,53.93
2023-05-10T19:51:14.047Z,53.97
2023-05-10T19:53:57.737Z,53.24
2023-05-10T19:56:33.812Z,54.55
2023-05-10T19:59:18.244Z,54.69
2023-05-10T20:01:53.176Z,53.69
2023-05-10T20:04:36.207Z,53.52
2023-05-10T20:07:22.316Z,54.18
2023-05-10T20:10:10.789Z,54.22
2023-05-10T20:12:52.492Z,54.28
2023-05-10T20:15:42.815Z,54.27
2023-05-10T20:18:41.336Z,54.54
2023-05-10T20:21:24.090Z,54.08
2023-05-10T20:24:09.163Z,54.58
2023-05-10T20:26:59.857Z,54.95
2023-05-10T20:29:43.790Z,54.83
2023-05-10T20:32:30.617Z,55.67
2023-05-10T20:35:16.807Z,55.14
2023-05-10T20:38:02.230Z,54.81
2023-05-10T20:40:46.449Z,55.59
2023-05-10T20:43:36.601Z,54.54
2023-05-10T20:46:13.118Z,55.88
2023-05-10T20:49:05.010Z,54.63
2023-05-10T20:51:49.426Z,55.41
2023-05-10T20:54:35.598Z,54.74
2023-05-10T20:57:19.314Z,54.56
2023-05-10T20:59:57.800Z,54.41
2023-05-10T21:02:43.796Z,53.94
2023-05-10T21:05:27.424Z,53.86
2023-05-10T21:08:08.592Z,54.13
2023-05-10T21:10:45.763Z,53.92
2023-05-10T21:13:26.092Z,53.49
2023-05-10T21:16:09.350Z,53.85
2023-05-10T21:18:53.256Z,52.50
2023-05-10T21:21:36.323Z,52.29
2023-05-10T21:24:19.266Z,51.80
2023-05-10T21:27:01.272Z,52.44
2023-05-10T21:29:47.110Z,52.41
2023-05-10T21:32:33.296Z,51.78
2023-05-10T21:36:05.620Z,52.02
2023-05-10T21:38:46.638Z,52.25
2023-05-10T21:41:29.874Z,52.27
2023-05-10T21:44:16.752Z,51.58
2023-05-10T21:47:07.678Z,51.73
2023-05-10T21:49:50.635Z,51.67
2023-05-10T21:52:37.637Z,51.08
2023-05-10T21:55:23.986Z,50.79
2023-05-10T21:58:05.029Z,51.24
2023-05-10T22:00:44.019Z,50.96
2023-05-10T22:03:22.916Z,50.97
2023-05-10T22:09:09.197Z,51.79
2023-05-10T22:11:52.431Z,52.15
2023-05-10T22:14:30.534Z,52.09
2023-05-10T22:17:28.172Z,51.24
2023-05-10T22:20:12.094Z,54.15
2023-05-10T22:22:57.781Z,51.94
2023-05-10T22:25:40.524Z,52.66
2023-05-10T22:28:23.766Z,51.81
2023-05-10T22:31:15.353Z,52.40
2023-05-10T22:34:02.079Z,52.40
2023-05-10T22:36:50.552Z,52.59
2023-05-10T22:39:33.844Z,53.19
2023-05-10T22:42:11.723Z,52.44
2023-05-10T22:44:57.281Z,52.65
2023-05-10T22:47:43.428Z,53.34
2023-05-10T22:50:26.914Z,53.13
2023-05-10T22:53:07.402Z,53.19
2023-05-10T22:55:50.122Z,53.60
2023-05-10T22:58:20.300Z,53.60
2023-05-10T23:00:58.246Z,54.09
2023-05-10T23:03:50.576Z,53.73
2023-05-10T23:06:28.242Z,53.84
2023-05-10T23:09:11.776Z,53.59
2023-05-10T23:11:55.397Z,53.10
2023-05-10T23:14:36.043Z,55.00
2023-05-10T23:17:14.534Z,53.90
2023-05-10T23:19:54.422Z,53.96
2023-05-10T23:22:35.229Z,53.91
2023-05-10T23:25:19.197Z,53.08
2023-05-10T23:27:59.453Z,53.17
2023-05-10T23:30:43.225Z,53.27
2023-05-10T23:33:27.323Z,52.89
2023-05-10T23:36:22.000Z,53.21
2023-05-10T23:39:28.526Z,52.71
2023-05-10T23:42:11.731Z,52.84
2023-05-10T23:44:50.613Z,52.90
2023-05-10T23:47:52.600Z,52.69
2023-05-10T23:50:42.546Z,52.66
2023-05-10T23:53:23.950Z,52.42
2023-05-10T23:56:09.217Z,52.97
2023-05-10T23:58:51.021Z,53.55
